Ursa Minor — ICGH — position and weather

sailwx.info

Track history (hours):
 
Tides and Currents Weather Stations Pressure Air Temp Water Temp Dewpoint Dewpoint Depression Visibility Wind Speed Wind Dir Waves Ship Positions

Ursa Minor

Last reported at 2016-Aug-25 12:33 UTC. Time now 2016-Aug-25 13:09 UTC.
Position N 40°25' E 014°09'.

Length 205 m; draft 8.3 m.

Type: Ship. MMSI: 247082300.

Date/timePositionNaut miles runAvg speedWind from/ knotsBaromVisibWave heightAir tempDewpointWater temp
2016-Aug-25 12:33N 40°25' E 014°09'22411.6
2016-Aug-24 17:16N 42°56' E 010°27'811.6
2016-Aug-24 16:33N 43°03' E 010°22'1211.5
2016-Aug-24 15:30N 43°14' E 010°13'1111.7
2016-Aug-24 14:33N 43°23' E 010°06'1212.1
2016-Aug-24 13:33N 43°33' E 009°56'1312.5
2016-Aug-24 12:33N 43°43' E 009°45'1212.1
2016-Aug-24 11:33N 43°52' E 009°34'1212.0
2016-Aug-24 10:34N 44°01' E 009°23'1212.1
2016-Aug-24 09:33N 44°10' E 009°11'1211.8
2016-Aug-24 08:33N 44°18' E 008°60'8 8.1
2016-Aug-24 07:31N 44°24' E 008°52'0 0.0
2016-Aug-24 06:31N 44°24' E 008°52'0 0.0
2016-Aug-24 04:33N 44°24' E 008°52'0 0.3
2016-Aug-24 03:33N 44°24' E 008°52'5 5.2
2016-Aug-24 02:33N 44°21' E 008°58'7 6.7
2016-Aug-24 01:33N 44°16' E 009°04'1111.3
2016-Aug-24 00:33N 44°08' E 009°15'1111.2
2016-Aug-23 23:33N 43°59' E 009°25'1111.2
2016-Aug-23 22:33N 43°51' E 009°35'1110.9
2016-Aug-23 21:33N 43°42' E 009°44'1110.7
2016-Aug-23 20:33N 43°34' E 009°54'1110.6
2016-Aug-23 19:33N 43°26' E 010°03'1110.7
2016-Aug-23 18:33N 43°17' E 010°11'1111.1
2016-Aug-23 17:33N 43°07' E 010°19'1111.4
2016-Aug-23 16:33N 42°57' E 010°26'1010.4
2016-Aug-23 15:33N 42°49' E 010°34'1110.8
2016-Aug-23 14:33N 42°40' E 010°42'1110.8
2016-Aug-23 13:33N 42°31' E 010°51'18311.3
2016-Aug-22 21:20N 40°32' E 013°57'13011.1
2016-Aug-22 09:33N 38°40' E 015°23'1111.2
2016-Aug-22 08:32N 38°31' E 015°32'1111.1
2016-Aug-22 07:33N 38°22' E 015°40'9 8.9
2016-Aug-22 06:33N 38°13' E 015°37'1111.0
2016-Aug-22 05:33N 38°02' E 015°36'1111.1
2016-Aug-22 04:33N 37°54' E 015°45'8 0.2
2016-Aug-20 09:31N 37°59' E 015°37'1110.9
2016-Aug-20 08:33N 38°10' E 015°35'10 9.4
2016-Aug-20 07:32N 38°19' E 015°40'1611.7
2016-Aug-20 06:08N 38°33' E 015°29'711.8
2016-Aug-20 05:31N 38°39' E 015°25'1211.7
2016-Aug-20 04:30N 38°49' E 015°17'9211.5
2016-Aug-19 20:29N 40°10' E 014°19'1111.6
2016-Aug-19 19:34N 40°19' E 014°12'1411.6
2016-Aug-19 18:22N 40°30' E 014°01'1211.9
2016-Aug-19 17:19N 40°38' E 013°48'2011.6
2016-Aug-19 15:33N 40°51' E 013°27'22011.6
2016-Aug-18 20:33N 43°29' E 010°01'1212.5
2016-Aug-18 19:33N 43°39' E 009°50'1312.7
2016-Aug-18 18:33N 43°48' E 009°38'1312.6
2016-Aug-18 17:33N 43°58' E 009°26'1212.2
2016-Aug-18 16:33N 44°07' E 009°15'1212.2
2016-Aug-18 15:33N 44°16' E 009°03'1110.8
2016-Aug-18 14:33N 44°24' E 008°54'1 1.0
2016-Aug-18 13:33N 44°24' E 008°52'0 0.0
2016-Aug-18 12:25N 44°24' E 008°52'0 0.0
2016-Aug-18 11:32N 44°24' E 008°52'0 0.0
2016-Aug-18 10:23N 44°24' E 008°52'0 0.0
2016-Aug-18 09:33N 44°24' E 008°52'0 0.0
2016-Aug-18 08:30N 44°24' E 008°52'0 0.0
2016-Aug-18 07:27N 44°24' E 008°52'0 0.0
2016-Aug-18 06:30N 44°24' E 008°52'0 0.0
2016-Aug-18 05:28N 44°24' E 008°52'0 0.0
2016-Aug-18 04:34N 44°24' E 008°52'0 0.1
2016-Aug-18 03:34N 44°24' E 008°52'5 4.9
2016-Aug-18 02:33N 44°22' E 008°58'8 8.1
2016-Aug-18 01:33N 44°15' E 009°05'1111.1
2016-Aug-18 00:33N 44°07' E 009°15'1111.1
2016-Aug-17 23:33N 43°59' E 009°26'1110.9
2016-Aug-17 22:33N 43°51' E 009°36'1110.7
2016-Aug-17 21:33N 43°42' E 009°45'1110.6
2016-Aug-17 20:33N 43°34' E 009°55'1110.6
2016-Aug-17 19:33N 43°26' E 010°04'1110.8
2016-Aug-17 18:33N 43°17' E 010°11'1111.3
2016-Aug-17 17:33N 43°07' E 010°19'19911.5
2016-Aug-17 00:11N 40°49' E 013°32'2111.6
2016-Aug-16 22:24N 40°35' E 013°52'1011.5
2016-Aug-16 21:32N 40°29' E 014°03'13911.2
2016-Aug-16 09:08N 38°29' E 015°33'611.2
2016-Aug-16 08:33N 38°24' E 015°38'9 8.5
2016-Aug-16 07:33N 38°15' E 015°41'24 8.1
2016-Aug-16 04:33N 37°53' E 015°52'  
Track history (hours):
 
Tides and Currents Weather Stations Pressure Air Temp Water Temp Dewpoint Dewpoint Depression Visibility Wind Speed Wind Dir Waves Ship Positions

Ursa Minor

Last reported at 2016-Aug-25 12:33 UTC. Time now 2016-Aug-25 13:09 UTC.
Position N 40°25' E 014°09'.

Length 205 m; draft 8.3 m.

Type: Ship. MMSI: 247082300.

Date/timePositionNaut miles runAvg speedWind from/ knotsBaromVisibWave heightAir tempDewpointWater temp
2016-Aug-25 12:33N 40°25' E 014°09'22411.6
2016-Aug-24 17:16N 42°56' E 010°27'811.6
2016-Aug-24 16:33N 43°03' E 010°22'1211.5
2016-Aug-24 15:30N 43°14' E 010°13'1111.7
2016-Aug-24 14:33N 43°23' E 010°06'1212.1
2016-Aug-24 13:33N 43°33' E 009°56'1312.5
2016-Aug-24 12:33N 43°43' E 009°45'1212.1
2016-Aug-24 11:33N 43°52' E 009°34'1212.0
2016-Aug-24 10:34N 44°01' E 009°23'1212.1
2016-Aug-24 09:33N 44°10' E 009°11'1211.8
2016-Aug-24 08:33N 44°18' E 008°60'8 8.1
2016-Aug-24 07:31N 44°24' E 008°52'0 0.0
2016-Aug-24 06:31N 44°24' E 008°52'0 0.0
2016-Aug-24 04:33N 44°24' E 008°52'0 0.3
2016-Aug-24 03:33N 44°24' E 008°52'5 5.2
2016-Aug-24 02:33N 44°21' E 008°58'7 6.7
2016-Aug-24 01:33N 44°16' E 009°04'1111.3
2016-Aug-24 00:33N 44°08' E 009°15'1111.2
2016-Aug-23 23:33N 43°59' E 009°25'1111.2
2016-Aug-23 22:33N 43°51' E 009°35'1110.9
2016-Aug-23 21:33N 43°42' E 009°44'1110.7
2016-Aug-23 20:33N 43°34' E 009°54'1110.6
2016-Aug-23 19:33N 43°26' E 010°03'1110.7
2016-Aug-23 18:33N 43°17' E 010°11'1111.1
2016-Aug-23 17:33N 43°07' E 010°19'1111.4
2016-Aug-23 16:33N 42°57' E 010°26'1010.4
2016-Aug-23 15:33N 42°49' E 010°34'1110.8
2016-Aug-23 14:33N 42°40' E 010°42'1110.8
2016-Aug-23 13:33N 42°31' E 010°51'18311.3
2016-Aug-22 21:20N 40°32' E 013°57'13011.1
2016-Aug-22 09:33N 38°40' E 015°23'1111.2
2016-Aug-22 08:32N 38°31' E 015°32'1111.1
2016-Aug-22 07:33N 38°22' E 015°40'9 8.9
2016-Aug-22 06:33N 38°13' E 015°37'1111.0
2016-Aug-22 05:33N 38°02' E 015°36'1111.1
2016-Aug-22 04:33N 37°54' E 015°45'8 0.2
2016-Aug-20 09:31N 37°59' E 015°37'1110.9
2016-Aug-20 08:33N 38°10' E 015°35'10 9.4
2016-Aug-20 07:32N 38°19' E 015°40'1611.7
2016-Aug-20 06:08N 38°33' E 015°29'711.8
2016-Aug-20 05:31N 38°39' E 015°25'1211.7
2016-Aug-20 04:30N 38°49' E 015°17'9211.5
2016-Aug-19 20:29N 40°10' E 014°19'1111.6
2016-Aug-19 19:34N 40°19' E 014°12'1411.6
2016-Aug-19 18:22N 40°30' E 014°01'1211.9
2016-Aug-19 17:19N 40°38' E 013°48'2011.6
2016-Aug-19 15:33N 40°51' E 013°27'22011.6
2016-Aug-18 20:33N 43°29' E 010°01'1212.5
2016-Aug-18 19:33N 43°39' E 009°50'1312.7
2016-Aug-18 18:33N 43°48' E 009°38'1312.6
2016-Aug-18 17:33N 43°58' E 009°26'1212.2
2016-Aug-18 16:33N 44°07' E 009°15'1212.2
2016-Aug-18 15:33N 44°16' E 009°03'1110.8
2016-Aug-18 14:33N 44°24' E 008°54'1 1.0
2016-Aug-18 13:33N 44°24' E 008°52'0 0.0
2016-Aug-18 12:25N 44°24' E 008°52'0 0.0
2016-Aug-18 11:32N 44°24' E 008°52'0 0.0
2016-Aug-18 10:23N 44°24' E 008°52'0 0.0
2016-Aug-18 09:33N 44°24' E 008°52'0 0.0
2016-Aug-18 08:30N 44°24' E 008°52'0 0.0
2016-Aug-18 07:27N 44°24' E 008°52'0 0.0
2016-Aug-18 06:30N 44°24' E 008°52'0 0.0
2016-Aug-18 05:28N 44°24' E 008°52'0 0.0
2016-Aug-18 04:34N 44°24' E 008°52'0 0.1
2016-Aug-18 03:34N 44°24' E 008°52'5 4.9
2016-Aug-18 02:33N 44°22' E 008°58'8 8.1
2016-Aug-18 01:33N 44°15' E 009°05'1111.1
2016-Aug-18 00:33N 44°07' E 009°15'1111.1
2016-Aug-17 23:33N 43°59' E 009°26'1110.9
2016-Aug-17 22:33N 43°51' E 009°36'1110.7
2016-Aug-17 21:33N 43°42' E 009°45'1110.6
2016-Aug-17 20:33N 43°34' E 009°55'1110.6
2016-Aug-17 19:33N 43°26' E 010°04'1110.8
2016-Aug-17 18:33N 43°17' E 010°11'1111.3
2016-Aug-17 17:33N 43°07' E 010°19'19911.5
2016-Aug-17 00:11N 40°49' E 013°32'2111.6
2016-Aug-16 22:24N 40°35' E 013°52'1011.5
2016-Aug-16 21:32N 40°29' E 014°03'13911.2
2016-Aug-16 09:08N 38°29' E 015°33'611.2
2016-Aug-16 08:33N 38°24' E 015°38'9 8.5
2016-Aug-16 07:33N 38°15' E 015°41'24 8.1
2016-Aug-16 04:33N 37°53' E 015°52'  

Dump ship's entire track history